DW6702 Weather Reports


Display with metric or nautical units.
time (UTC)temp
F
wind
direction
speed
MPH
gust
MPH
rain 1hr
in
rain 24hr
in
rain mn
in
humidity
%
barometer
mb
20200219211318 48 288 1.0 1.0 0.00 0.16 0.13 71 1028.5
20200219210331 48 298 2.0 2.0 0.00 0.16 0.13 69 1028.7
20200219205322 48 296 1.0 3.0 0.00 0.16 0.13 70 1028.6
20200219204316 48 281 2.0 4.0 0.00 0.16 0.13 70 1028.6
20200219203331 48 331 2.0 6.0 0.00 0.16 0.13 69 1028.4
20200219202324 49 283 1.0 3.0 0.00 0.16 0.13 73 1028.6
20200219201317 49 298 4.0 6.0 0.00 0.16 0.13 71 1028.3
20200219200330 49 328 2.0 3.0 0.00 0.16 0.13 74 1028.3
20200219195326 48 286 1.0 3.0 0.00 0.16 0.13 75 1028.3
20200219194319 48 323 2.0 5.0 0.00 0.16 0.13 73 1028.4
20200219193332 48 276 2.0 4.0 0.00 0.16 0.13 74 1028.4
20200219192328 48 327 1.0 6.0 0.00 0.16 0.13 74 1028.2
20200219191320 48 298 3.0 5.0 0.00 0.16 0.13 74 1028.0
20200219190333 48 359 3.0 6.0 0.00 0.16 0.13 73 1028.1
20200219185325 48 349 4.0 6.0 0.00 0.16 0.13 75 1028.0
20200219184322 48 10 5.0 7.0 0.01 0.16 0.13 77 1028.2
20200219183315 48 319 3.0 5.0 0.01 0.16 0.13 79 1028.1
20200219182327 48 292 2.0 4.0 0.01 0.16 0.13 81 1028.1
20200219181323 48 344 2.0 6.0 0.01 0.16 0.13 81 1028.1
20200219180316 48 357 4.0 6.0 0.01 0.16 0.13 82 1027.9
20200219175329 48 343 3.0 9.0 0.01 0.16 0.13 82 1028.0
20200219174321 48 331 5.0 10.0 0.00 0.15 0.12 78 1028.1
20200219173318 49 309 2.0 8.0 0.00 0.15 0.12 79 1028.3
20200219172330 48 328 5.0 8.0 0.00 0.15 0.12 78 1028.4
20200219171323 48 340 5.0 9.0 0.00 0.15 0.12 78 1028.3
20200219170320 48 1 5.0 7.0 0.00 0.15 0.12 78 1028.6
20200219165331 48 1 5.0 10.0 0.00 0.15 0.12 77 1028.4
20200219164324 48 359 5.0 14.0 0.00 0.15 0.12 76 1028.8
20200219163316 48 338 6.0 11.0 0.00 0.15 0.12 79 1028.7
20200219162332 48 321 4.0 9.0 0.00 0.15 0.12 85 1028.4
20200219161325 48 16 3.0 9.0 0.00 0.15 0.12 88 1028.4
20200219160318 48 313 3.0 9.0 0.00 0.15 0.12 90 1028.7
20200219155334 48 338 7.0 12.0 0.00 0.15 0.12 89 1028.3
20200219154326 47 18 5.0 8.0 0.00 0.15 0.12 92 1027.5
20200219153318 47 354 5.0 12.0 0.00 0.15 0.12 92 1027.6
20200219152331 47 352 5.0 11.0 0.00 0.15 0.12 94 1027.5
20200219151328 47 3 9.0 17.0 0.00 0.15 0.12 93 1027.4
20200219150320 48 343 7.0 13.0 0.00 0.15 0.12 95 1027.3
20200219145332 48 11 8.0 14.0 0.00 0.15 0.12 94 1026.7
20200219144329 49 359 9.0 16.0 0.00 0.15 0.12 94 1026.5
20200219143322 50 345 7.0 14.0 0.00 0.15 0.12 95 1026.3
20200219142314 50 356 7.0 14.0 0.00 0.15 0.12 96 1026.0
20200219141328 50 326 5.0 11.0 0.00 0.15 0.12 96 1025.9
20200219140324 50 338 4.0 10.0 0.00 0.15 0.12 97 1025.7
20200219135316 50 330 5.0 11.0 0.00 0.15 0.12 96 1025.4
20200219134329 50 327 5.0 10.0 0.00 0.15 0.12 97 1025.1
20200219133325 50 337 4.0 10.0 0.00 0.15 0.12 97 1025.2
20200219132318 50 348 3.0 7.0 0.00 0.15 0.12 97 1025.0
20200219131331 50 276 4.0 8.0 0.00 0.15 0.12 96 1024.9
20200219130324 50 322 3.0 11.0 0.00 0.15 0.12 96 1024.4
20200219125321 51 309 3.0 10.0 0.01 0.15 0.12 95 1024.3
20200219124333 51 341 5.0 11.0 0.01 0.15 0.12 95 1024.0
20200219123327 51 309 5.0 9.0 0.01 0.15 0.12 95 1024.0
20200219122322 51 312 4.0 7.0 0.01 0.15 0.12 94 1023.6
20200219121314 51 2 5.0 16.0 0.01 0.15 0.12 93 1023.2
20200219120328 52 286 6.0 20.0 0.01 0.15 0.12 93 1023.0
20200219115320 54 303 5.0 11.0 0.00 0.14 0.11 97 1022.7
20200219114317 54 307 4.0 9.0 0.01 0.14 0.11 97 1021.9
20200219113329 54 308 3.0 5.0 0.01 0.14 0.11 97 1022.3
20200219112322 55 307 4.0 12.0 0.01 0.14 0.11 97 1021.9
20200219111319 55 300 4.0 8.0 0.01 0.14 0.11 97 1022.0
20200219110332 55 274 3.0 9.0 0.01 0.14 0.11 97 1021.9
20200219105325 56 261 4.0 7.0 0.01 0.14 0.11 98 1021.5
20200219104317 56 273 3.0 6.0 0.01 0.13 0.10 98 1021.0
20200219103334 56 300 3.0 5.0 0.01 0.13 0.10 99 1020.6
20200219102327 56 247 0.0 4.0 0.01 0.13 0.10 99 1020.7
20200219101318 57 207 1.0 2.0 0.02 0.13 0.10 99 1020.5
20200219100315 57 177 0.0 1.0 0.02 0.13 0.10 99 1020.3
20200219095328 57 177 0.0 1.0 0.02 0.13 0.10 99 1020.3
20200219094320 57 177 0.0 2.0 0.01 0.12 0.09 99 1020.2
20200219093333 57 177 0.0 1.0 0.01 0.12 0.09 99 1020.2
20200219092330 57 174 0.0 2.0 0.02 0.12 0.09 99 1020.0
20200219091322 57 179 1.0 2.0 0.01 0.11 0.08 99 1019.8
20200219090315 57 184 1.0 2.0 0.01 0.11 0.08 99 1019.5
20200219085328 57 198 2.0 3.0 0.01 0.11 0.08 99 1019.4
20200219084325 57 172 0.0 2.0 0.01 0.11 0.08 99 1019.4
20200219083317 57 198 1.0 2.0 0.01 0.11 0.08 98 1019.5
20200219082329 57 184 1.0 2.0 0.00 0.10 0.07 98 1019.4
20200219081326 57 189 1.0 3.0 0.01 0.10 0.07 98 1019.3
20200219080318 56 167 1.0 2.0 0.01 0.10 0.07 98 1019.5
20200219075331 56 185 1.0 2.0 0.01 0.10 0.07 98 1019.4
20200219074323 56 174 0.0 3.0 0.01 0.10 0.07 98 1019.5
20200219073320 56 179 0.0 2.0 0.02 0.10 0.07 98 1019.6
20200219072333 56 174 1.0 1.0 0.02 0.10 0.07 98 1019.5
20200219071325 56 184 0.0 2.0 0.01 0.09 0.06 98 1019.4
20200219070321 56 180 0.0 1.0 0.02 0.09 0.06 98 1019.2
20200219065334 56 178 0.0 2.0 0.03 0.09 0.06 98 1019.2
20200219064327 56 185 1.0 2.0 0.04 0.09 0.06 98 1019.0
20200219063318 56 158 1.0 3.0 0.04 0.08 0.05 98 1018.8
20200219062316 56 170 0.0 2.0 0.04 0.08 0.05 98 1019.1
20200219061329 56 177 0.0 3.0 0.05 0.08 0.05 98 1019.3
20200219060323 56 163 1.0 3.0 0.04 0.07 0.04 98 1019.4
20200219055333 56 165 1.0 2.0 0.03 0.06 0.03 98 1019.4
20200219054326 56 167 1.0 3.0 0.02 0.05 0.02 98 1019.5
20200219053319 56 170 1.0 4.0 0.01 0.04 0.01 98 1019.4
20200219052331 56 172 2.0 5.0 0.01 0.04 0.01 98 1019.1
20200219051328 56 161 2.0 5.0 0.00 0.03 0.00 97 1019.0
20200219050320 56 164 2.0 4.0 0.00 0.03 0.00 97 1018.9
20200219045331 56 163 2.0 5.0 0.00 0.03 0.03 97 1018.7
20200219044328 55 155 1.0 2.0 0.00 0.03 0.03 97 1018.7
20200219043321 55 176 2.0 3.0 0.01 0.03 0.03 97 1019.0
20200219042334 55 149 1.0 3.0 0.02 0.03 0.03 96 1019.0
20200219041326 55 154 1.0 2.0 0.02 0.03 0.03 96 1019.3
20200219040322 55 165 1.0 2.0 0.03 0.03 0.03 96 1019.4
20200219035314 55 159 1.0 4.0 0.03 0.03 0.03 95 1019.6
20200219034328 56 163 2.0 4.0 0.03 0.03 0.03 95 1019.7
20200219033324 56 174 1.0 4.0 0.02 0.02 0.02 94 1019.9
20200219032316 56 171 2.0 5.0 0.01 0.01 0.01 93 1020.1
20200219031328 56 155 2.0 4.0 0.01 0.01 0.01 92 1020.1
20200219030321 57 159 4.0 8.0 0.00 0.00 0.00 90 1020.2
20200219025315 57 163 3.0 5.0 0.00 0.00 0.00 88 1020.0
20200219024349 57 152 2.0 4.0 0.00 0.00 0.00 87 1020.1
20200219023320 57 151 2.0 3.0 0.00 0.00 0.00 87 1020.1
20200219022332 57 162 1.0 3.0 0.00 0.00 0.00 87 1019.9
20200219021328 57 159 1.0 3.0 0.00 0.00 0.00 86 1019.9
20200219020320 57 166 2.0 3.0 0.00 0.00 0.00 86 1020.1
20200219015333 57 171 1.0 2.0 0.00 0.00 0.00 85 1020.1
20200219014329 57 148 1.0 2.0 0.00 0.00 0.00 85 1020.1
20200219013321 57 161 1.0 2.0 0.00 0.00 0.00 85 1020.2
20200219012314 57 153 0.0 2.0 0.00 0.00 0.00 84 1020.0
20200219011327 57 163 1.0 3.0 0.00 0.00 0.00 84 1020.1
20200219010324 57 167 2.0 3.0 0.00 0.00 0.00 83 1020.1
20200219005316 57 137 1.0 3.0 0.00 0.00 0.00 83 1020.2
20200219004329 57 148 1.0 2.0 0.00 0.00 0.00 83 1020.3
20200219003325 57 148 2.0 3.0 0.00 0.00 0.00 83 1020.4
20200219002318 57 161 2.0 4.0 0.00 0.00 0.00 82 1020.3
20200219001330 57 156 1.0 3.0 0.00 0.00 0.00 82 1020.2
20200219000320 57 160 2.0 3.0 0.00 0.00 0.00 82 1020.3
20200218235316 58 153 1.0 5.0 0.00 0.00 0.00 82 1020.2
20200218234351 57 163 2.0 5.0 0.00 0.00 0.00 82 1020.2
20200218233322 57 157 1.0 4.0 0.00 0.00 0.00 82 1020.1
20200218232355 57 159 1.0 3.0 0.00 0.00 0.00 83 1020.2
20200218231330 58 167 1.0 4.0 0.00 0.00 0.00 82 1020.1
20200218230323 58 163 0.0 1.0 0.00 0.00 0.00 82 1020.1
20200218225315 58 165 0.0 1.0 0.00 0.00 0.00 80 1019.9
20200218224349 58 157 1.0 1.0 0.00 0.00 0.00 79 1019.8
20200218223345 59 154 0.0 2.0 0.00 0.00 0.00 78 1019.5
20200218222316 59 155 1.0 3.0 0.00 0.00 0.00 77 1019.6
20200218221329 59 167 1.0 2.0 0.00 0.00 0.00 77 1019.4
20200218220342 59 151 1.0 3.0 0.00 0.00 0.00 77 1019.4
20200218215319 59 186 0.0 2.0 0.00 0.00 0.00 77 1019.6
20200218214351 59 169 0.0 2.0 0.00 0.00 0.00 77 1019.3
20200218213323 60 151 2.0 3.0 0.00 0.00 0.00 76 1019.2
20200218212337 60 167 1.0 3.0 0.00 0.00 0.00 75 1019.4